sensor_id;sensor_type;location;lat;lon;timestamp;temperature;humidity
4453;DHT22;2239;48.152;11.584;2023-07-20T00:01:25;22.90;74.10
4453;DHT22;2239;48.152;11.584;2023-07-20T00:03:51;22.90;74.20
4453;DHT22;2239;48.152;11.584;2023-07-20T00:06:24;22.90;75.10
4453;DHT22;2239;48.152;11.584;2023-07-20T00:08:53;22.90;74.80
4453;DHT22;2239;48.152;11.584;2023-07-20T00:11:19;22.80;74.20
4453;DHT22;2239;48.152;11.584;2023-07-20T00:13:44;22.80;74.20
4453;DHT22;2239;48.152;11.584;2023-07-20T00:16:10;22.80;74.60
4453;DHT22;2239;48.152;11.584;2023-07-20T00:18:36;22.80;74.00
4453;DHT22;2239;48.152;11.584;2023-07-20T00:21:01;22.70;75.00
4453;DHT22;2239;48.152;11.584;2023-07-20T00:23:27;22.70;75.50
4453;DHT22;2239;48.152;11.584;2023-07-20T00:25:53;22.70;75.70
4453;DHT22;2239;48.152;11.584;2023-07-20T00:28:19;22.60;76.10
4453;DHT22;2239;48.152;11.584;2023-07-20T00:30:44;22.50;76.40
4453;DHT22;2239;48.152;11.584;2023-07-20T00:33:10;22.50;77.00
4453;DHT22;2239;48.152;11.584;2023-07-20T00:35:37;22.40;76.70
4453;DHT22;2239;48.152;11.584;2023-07-20T00:38:03;22.40;77.20
4453;DHT22;2239;48.152;11.584;2023-07-20T00:40:34;22.40;76.30
4453;DHT22;2239;48.152;11.584;2023-07-20T00:43:00;22.40;76.90
4453;DHT22;2239;48.152;11.584;2023-07-20T00:45:26;22.50;76.80
4453;DHT22;2239;48.152;11.584;2023-07-20T00:47:52;22.50;76.80
4453;DHT22;2239;48.152;11.584;2023-07-20T00:50:18;22.50;77.40
4453;DHT22;2239;48.152;11.584;2023-07-20T00:52:44;22.50;77.20
4453;DHT22;2239;48.152;11.584;2023-07-20T00:55:10;22.40;77.70
4453;DHT22;2239;48.152;11.584;2023-07-20T00:57:36;22.40;77.70
4453;DHT22;2239;48.152;11.584;2023-07-20T01:00:02;22.40;77.00
4453;DHT22;2239;48.152;11.584;2023-07-20T01:02:28;22.40;77.70
4453;DHT22;2239;48.152;11.584;2023-07-20T01:04:53;22.40;78.10
4453;DHT22;2239;48.152;11.584;2023-07-20T01:07:26;22.40;77.20
4453;DHT22;2239;48.152;11.584;2023-07-20T01:12:40;22.30;77.90
4453;DHT22;2239;48.152;11.584;2023-07-20T01:15:07;22.30;78.40
4453;DHT22;2239;48.152;11.584;2023-07-20T01:17:34;22.30;78.40
4453;DHT22;2239;48.152;11.584;2023-07-20T01:19:59;22.30;78.20
4453;DHT22;2239;48.152;11.584;2023-07-20T01:28:39;22.20;78.60
4453;DHT22;2239;48.152;11.584;2023-07-20T01:31:27;22.20;79.40
4453;DHT22;2239;48.152;11.584;2023-07-20T01:33:58;22.20;80.00
4453;DHT22;2239;48.152;11.584;2023-07-20T01:36:26;22.20;80.10
4453;DHT22;2239;48.152;11.584;2023-07-20T01:38:54;22.10;80.30
4453;DHT22;2239;48.152;11.584;2023-07-20T01:41:20;22.20;80.40
4453;DHT22;2239;48.152;11.584;2023-07-20T01:43:46;22.10;80.00
4453;DHT22;2239;48.152;11.584;2023-07-20T01:46:11;22.10;80.20
4453;DHT22;2239;48.152;11.584;2023-07-20T01:48:37;22.10;80.30
4453;DHT22;2239;48.152;11.584;2023-07-20T01:51:03;22.20;79.30
4453;DHT22;2239;48.152;11.584;2023-07-20T01:53:28;22.20;78.40
4453;DHT22;2239;48.152;11.584;2023-07-20T01:55:54;22.20;77.50
4453;DHT22;2239;48.152;11.584;2023-07-20T01:58:20;22.20;77.70
4453;DHT22;2239;48.152;11.584;2023-07-20T02:00:46;22.20;78.60
4453;DHT22;2239;48.152;11.584;2023-07-20T02:03:11;22.10;79.30
4453;DHT22;2239;48.152;11.584;2023-07-20T02:05:42;22.10;78.30
4453;DHT22;2239;48.152;11.584;2023-07-20T02:08:07;22.10;77.50
4453;DHT22;2239;48.152;11.584;2023-07-20T02:10:34;22.10;77.70
4453;DHT22;2239;48.152;11.584;2023-07-20T02:12:59;22.10;78.30
4453;DHT22;2239;48.152;11.584;2023-07-20T02:15:25;22.00;78.10
4453;DHT22;2239;48.152;11.584;2023-07-20T02:17:51;22.00;78.50
4453;DHT22;2239;48.152;11.584;2023-07-20T02:20:16;22.00;79.90
4453;DHT22;2239;48.152;11.584;2023-07-20T02:22:43;21.90;80.80
4453;DHT22;2239;48.152;11.584;2023-07-20T02:25:09;21.80;81.20
4453;DHT22;2239;48.152;11.584;2023-07-20T02:27:34;21.80;81.60
4453;DHT22;2239;48.152;11.584;2023-07-20T02:30:01;21.70;81.80
4453;DHT22;2239;48.152;11.584;2023-07-20T02:32:28;21.70;81.20
4453;DHT22;2239;48.152;11.584;2023-07-20T02:34:53;21.70;82.10
4453;DHT22;2239;48.152;11.584;2023-07-20T02:37:19;21.60;82.40
4453;DHT22;2239;48.152;11.584;2023-07-20T02:39:44;21.60;82.50
4453;DHT22;2239;48.152;11.584;2023-07-20T02:42:10;21.60;82.50
4453;DHT22;2239;48.152;11.584;2023-07-20T02:44:36;21.60;83.10
4453;DHT22;2239;48.152;11.584;2023-07-20T02:47:01;21.60;82.70
4453;DHT22;2239;48.152;11.584;2023-07-20T02:49:27;21.60;82.50
4453;DHT22;2239;48.152;11.584;2023-07-20T02:51:53;21.60;82.10
4453;DHT22;2239;48.152;11.584;2023-07-20T02:54:19;21.60;81.50
4453;DHT22;2239;48.152;11.584;2023-07-20T02:56:45;21.60;81.90
4453;DHT22;2239;48.152;11.584;2023-07-20T02:59:10;21.60;81.10
4453;DHT22;2239;48.152;11.584;2023-07-20T03:01:36;21.60;80.50
4453;DHT22;2239;48.152;11.584;2023-07-20T03:04:01;21.60;81.40
4453;DHT22;2239;48.152;11.584;2023-07-20T03:06:27;21.60;81.80
4453;DHT22;2239;48.152;11.584;2023-07-20T03:08:53;21.50;83.20
4453;DHT22;2239;48.152;11.584;2023-07-20T03:11:19;21.40;84.70
4453;DHT22;2239;48.152;11.584;2023-07-20T03:13:46;21.30;84.80
4453;DHT22;2239;48.152;11.584;2023-07-20T03:16:13;21.20;83.90
4453;DHT22;2239;48.152;11.584;2023-07-20T03:18:41;21.20;86.30
4453;DHT22;2239;48.152;11.584;2023-07-20T03:21:07;21.10;86.70
4453;DHT22;2239;48.152;11.584;2023-07-20T03:23:33;21.00;87.50
4453;DHT22;2239;48.152;11.584;2023-07-20T03:25:59;20.80;86.90
4453;DHT22;2239;48.152;11.584;2023-07-20T03:28:25;20.70;87.80
4453;DHT22;2239;48.152;11.584;2023-07-20T03:30:54;20.70;88.50
4453;DHT22;2239;48.152;11.584;2023-07-20T03:33:22;20.60;89.70
4453;DHT22;2239;48.152;11.584;2023-07-20T03:35:48;20.60;90.10
4453;DHT22;2239;48.152;11.584;2023-07-20T03:38:13;20.50;91.70
4453;DHT22;2239;48.152;11.584;2023-07-20T03:40:39;20.40;94.50
4453;DHT22;2239;48.152;11.584;2023-07-20T03:43:04;20.20;96.70
4453;DHT22;2239;48.152;11.584;2023-07-20T03:45:30;19.90;97.90
4453;DHT22;2239;48.152;11.584;2023-07-20T03:47:55;19.70;98.40
4453;DHT22;2239;48.152;11.584;2023-07-20T03:50:21;19.60;99.60
4453;DHT22;2239;48.152;11.584;2023-07-20T03:52:47;19.60;99.90
4453;DHT22;2239;48.152;11.584;2023-07-20T03:55:13;19.50;99.90
4453;DHT22;2239;48.152;11.584;2023-07-20T03:57:38;19.50;99.90
4453;DHT22;2239;48.152;11.584;2023-07-20T04:00:04;19.60;99.90
4453;DHT22;2239;48.152;11.584;2023-07-20T04:02:33;19.60;99.90
4453;DHT22;2239;48.152;11.584;2023-07-20T04:04:58;19.70;99.90
4453;DHT22;2239;48.152;11.584;2023-07-20T04:07:24;19.70;99.90
4453;DHT22;2239;48.152;11.584;2023-07-20T04:09:49;19.80;99.90
4453;DHT22;2239;48.152;11.584;2023-07-20T04:12:15;19.80;99.90
4453;DHT22;2239;48.152;11.584;2023-07-20T04:14:40;19.80;99.90
4453;DHT22;2239;48.152;11.584;2023-07-20T04:17:06;19.80;99.90
4453;DHT22;2239;48.152;11.584;2023-07-20T04:19:31;19.80;99.90
4453;DHT22;2239;48.152;11.584;2023-07-20T04:21:57;19.80;99.90
4453;DHT22;2239;48.152;11.584;2023-07-20T04:24:23;19.70;99.90
4453;DHT22;2239;48.152;11.584;2023-07-20T04:26:48;19.70;99.90
4453;DHT22;2239;48.152;11.584;2023-07-20T04:29:14;19.60;99.90
4453;DHT22;2239;48.152;11.584;2023-07-20T04:31:39;19.60;99.90
4453;DHT22;2239;48.152;11.584;2023-07-20T04:34:05;19.50;99.90
4453;DHT22;2239;48.152;11.584;2023-07-20T04:36:30;19.60;99.90
4453;DHT22;2239;48.152;11.584;2023-07-20T04:38:56;19.60;99.90
4453;DHT22;2239;48.152;11.584;2023-07-20T04:41:21;19.70;99.90
4453;DHT22;2239;48.152;11.584;2023-07-20T04:43:47;19.70;99.90
4453;DHT22;2239;48.152;11.584;2023-07-20T04:46:13;19.70;99.90
4453;DHT22;2239;48.152;11.584;2023-07-20T04:48:38;19.80;99.90
4453;DHT22;2239;48.152;11.584;2023-07-20T04:51:06;19.80;99.90
4453;DHT22;2239;48.152;11.584;2023-07-20T04:53:31;19.80;99.30
4453;DHT22;2239;48.152;11.584;2023-07-20T04:55:57;19.80;99.10
4453;DHT22;2239;48.152;11.584;2023-07-20T04:58:22;19.80;99.10
4453;DHT22;2239;48.152;11.584;2023-07-20T05:00:49;19.80;99.20
4453;DHT22;2239;48.152;11.584;2023-07-20T05:03:15;19.90;99.50
4453;DHT22;2239;48.152;11.584;2023-07-20T05:05:40;20.00;99.00
4453;DHT22;2239;48.152;11.584;2023-07-20T05:08:06;20.10;99.10
4453;DHT22;2239;48.152;11.584;2023-07-20T05:10:32;20.10;98.80
4453;DHT22;2239;48.152;11.584;2023-07-20T05:12:58;20.20;98.10
4453;DHT22;2239;48.152;11.584;2023-07-20T05:15:23;20.20;98.10
4453;DHT22;2239;48.152;11.584;2023-07-20T05:17:49;20.10;98.20
4453;DHT22;2239;48.152;11.584;2023-07-20T05:20:15;20.00;97.40
4453;DHT22;2239;48.152;11.584;2023-07-20T05:22:40;20.10;97.30
4453;DHT22;2239;48.152;11.584;2023-07-20T05:25:10;20.10;96.80
4453;DHT22;2239;48.152;11.584;2023-07-20T05:27:39;20.30;96.60
4453;DHT22;2239;48.152;11.584;2023-07-20T05:30:06;20.30;96.30
4453;DHT22;2239;48.152;11.584;2023-07-20T05:32:32;20.40;95.50
4453;DHT22;2239;48.152;11.584;2023-07-20T05:34:58;20.40;94.40
4453;DHT22;2239;48.152;11.584;2023-07-20T05:37:24;20.40;94.10
4453;DHT22;2239;48.152;11.584;2023-07-20T05:39:49;20.50;93.20
4453;DHT22;2239;48.152;11.584;2023-07-20T05:42:15;20.50;93.40
4453;DHT22;2239;48.152;11.584;2023-07-20T05:44:41;20.60;93.40
4453;DHT22;2239;48.152;11.584;2023-07-20T05:47:07;20.60;93.20
4453;DHT22;2239;48.152;11.584;2023-07-20T05:49:32;20.60;92.90
4453;DHT22;2239;48.152;11.584;2023-07-20T05:51:58;20.60;92.70
4453;DHT22;2239;48.152;11.584;2023-07-20T05:54:24;20.70;92.20
4453;DHT22;2239;48.152;11.584;2023-07-20T05:56:50;20.70;91.30
4453;DHT22;2239;48.152;11.584;2023-07-20T05:59:16;20.80;90.80
4453;DHT22;2239;48.152;11.584;2023-07-20T06:01:42;20.80;90.90
4453;DHT22;2239;48.152;11.584;2023-07-20T06:04:08;20.80;90.60
4453;DHT22;2239;48.152;11.584;2023-07-20T06:06:34;20.90;90.00
4453;DHT22;2239;48.152;11.584;2023-07-20T06:09:00;21.00;90.00
4453;DHT22;2239;48.152;11.584;2023-07-20T06:11:29;21.10;89.10
4453;DHT22;2239;48.152;11.584;2023-07-20T06:13:56;21.20;88.60
4453;DHT22;2239;48.152;11.584;2023-07-20T06:16:21;21.30;88.30
4453;DHT22;2239;48.152;11.584;2023-07-20T06:18:47;21.30;87.80
4453;DHT22;2239;48.152;11.584;2023-07-20T06:21:13;21.50;86.50
4453;DHT22;2239;48.152;11.584;2023-07-20T06:23:38;21.50;86.30
4453;DHT22;2239;48.152;11.584;2023-07-20T06:26:06;21.70;85.80
4453;DHT22;2239;48.152;11.584;2023-07-20T06:28:31;21.80;85.30
4453;DHT22;2239;48.152;11.584;2023-07-20T06:31:01;21.90;84.80
4453;DHT22;2239;48.152;11.584;2023-07-20T06:33:27;21.90;84.30
4453;DHT22;2239;48.152;11.584;2023-07-20T06:35:52;22.00;84.40
4453;DHT22;2239;48.152;11.584;2023-07-20T06:38:18;21.90;83.80
4453;DHT22;2239;48.152;11.584;2023-07-20T06:40:46;21.90;84.10
4453;DHT22;2239;48.152;11.584;2023-07-20T06:43:12;21.90;84.20
4453;DHT22;2239;48.152;11.584;2023-07-20T06:45:37;21.90;84.10
4453;DHT22;2239;48.152;11.584;2023-07-20T06:48:03;21.90;84.70
4453;DHT22;2239;48.152;11.584;2023-07-20T06:50:29;21.90;84.30
4453;DHT22;2239;48.152;11.584;2023-07-20T06:52:56;21.80;84.00
4453;DHT22;2239;48.152;11.584;2023-07-20T06:55:22;21.80;84.20
4453;DHT22;2239;48.152;11.584;2023-07-20T06:57:49;21.80;84.20
4453;DHT22;2239;48.152;11.584;2023-07-20T07:00:14;21.80;84.20
4453;DHT22;2239;48.152;11.584;2023-07-20T07:02:40;22.00;84.20
4453;DHT22;2239;48.152;11.584;2023-07-20T07:05:06;22.10;83.60
4453;DHT22;2239;48.152;11.584;2023-07-20T07:07:31;22.20;83.50
4453;DHT22;2239;48.152;11.584;2023-07-20T07:09:57;22.20;83.20
4453;DHT22;2239;48.152;11.584;2023-07-20T07:12:23;22.20;82.70
4453;DHT22;2239;48.152;11.584;2023-07-20T07:14:48;22.30;82.70
4453;DHT22;2239;48.152;11.584;2023-07-20T07:17:14;22.40;81.80
4453;DHT22;2239;48.152;11.584;2023-07-20T07:19:40;22.50;81.40
4453;DHT22;2239;48.152;11.584;2023-07-20T07:22:06;22.60;80.90
4453;DHT22;2239;48.152;11.584;2023-07-20T07:24:31;22.70;80.70
4453;DHT22;2239;48.152;11.584;2023-07-20T07:27:02;22.80;79.50
4453;DHT22;2239;48.152;11.584;2023-07-20T07:29:29;22.90;78.80
4453;DHT22;2239;48.152;11.584;2023-07-20T07:31:55;22.90;78.10
4453;DHT22;2239;48.152;11.584;2023-07-20T07:34:20;22.80;77.10
4453;DHT22;2239;48.152;11.584;2023-07-20T07:36:46;22.90;76.60
4453;DHT22;2239;48.152;11.584;2023-07-20T07:39:12;22.90;76.00
4453;DHT22;2239;48.152;11.584;2023-07-20T07:41:38;22.90;76.10
4453;DHT22;2239;48.152;11.584;2023-07-20T07:44:04;22.90;76.00
4453;DHT22;2239;48.152;11.584;2023-07-20T07:46:29;22.90;76.20
4453;DHT22;2239;48.152;11.584;2023-07-20T07:48:55;22.90;76.50
4453;DHT22;2239;48.152;11.584;2023-07-20T07:51:20;22.90;76.60
4453;DHT22;2239;48.152;11.584;2023-07-20T07:53:46;23.00;75.10
4453;DHT22;2239;48.152;11.584;2023-07-20T07:56:12;23.10;74.20
4453;DHT22;2239;48.152;11.584;2023-07-20T07:58:37;23.10;74.50
4453;DHT22;2239;48.152;11.584;2023-07-20T08:01:04;23.20;74.20
4453;DHT22;2239;48.152;11.584;2023-07-20T08:03:29;23.30;73.10
4453;DHT22;2239;48.152;11.584;2023-07-20T08:05:55;23.50;73.30
4453;DHT22;2239;48.152;11.584;2023-07-20T08:08:21;23.50;72.30
4453;DHT22;2239;48.152;11.584;2023-07-20T08:10:47;23.80;72.20
4453;DHT22;2239;48.152;11.584;2023-07-20T08:13:13;24.10;70.40
4453;DHT22;2239;48.152;11.584;2023-07-20T08:15:41;24.30;69.90
4453;DHT22;2239;48.152;11.584;2023-07-20T08:18:06;24.70;68.60
4453;DHT22;2239;48.152;11.584;2023-07-20T08:20:33;25.00;68.40
4453;DHT22;2239;48.152;11.584;2023-07-20T08:23:01;25.30;66.70
4453;DHT22;2239;48.152;11.584;2023-07-20T08:25:26;25.40;65.70
4453;DHT22;2239;48.152;11.584;2023-07-20T08:27:52;25.40;65.70
4453;DHT22;2239;48.152;11.584;2023-07-20T08:30:21;25.30;65.40
4453;DHT22;2239;48.152;11.584;2023-07-20T08:32:47;25.10;64.40
4453;DHT22;2239;48.152;11.584;2023-07-20T08:35:12;24.80;66.20
4453;DHT22;2239;48.152;11.584;2023-07-20T08:37:38;24.90;65.90
4453;DHT22;2239;48.152;11.584;2023-07-20T08:40:04;24.80;65.70
4453;DHT22;2239;48.152;11.584;2023-07-20T08:42:30;24.80;66.40
4453;DHT22;2239;48.152;11.584;2023-07-20T08:44:56;24.90;66.20
4453;DHT22;2239;48.152;11.584;2023-07-20T08:47:24;25.10;64.40
4453;DHT22;2239;48.152;11.584;2023-07-20T08:49:50;25.10;63.50
4453;DHT22;2239;48.152;11.584;2023-07-20T08:52:16;25.00;63.20
4453;DHT22;2239;48.152;11.584;2023-07-20T08:54:42;25.00;63.30
4453;DHT22;2239;48.152;11.584;2023-07-20T08:57:08;25.10;62.00
4453;DHT22;2239;48.152;11.584;2023-07-20T08:59:38;24.90;62.10
4453;DHT22;2239;48.152;11.584;2023-07-20T09:02:04;25.00;62.30
4453;DHT22;2239;48.152;11.584;2023-07-20T09:04:30;25.10;62.40
4453;DHT22;2239;48.152;11.584;2023-07-20T09:06:57;25.10;62.50
4453;DHT22;2239;48.152;11.584;2023-07-20T09:09:22;25.10;62.40
4453;DHT22;2239;48.152;11.584;2023-07-20T09:11:49;25.20;62.10
4453;DHT22;2239;48.152;11.584;2023-07-20T09:14:15;25.40;62.20
4453;DHT22;2239;48.152;11.584;2023-07-20T09:16:48;25.50;61.50
4453;DHT22;2239;48.152;11.584;2023-07-20T09:19:15;25.60;61.40
4453;DHT22;2239;48.152;11.584;2023-07-20T09:21:48;25.60;60.50
4453;DHT22;2239;48.152;11.584;2023-07-20T09:24:14;25.60;60.20
4453;DHT22;2239;48.152;11.584;2023-07-20T09:26:44;25.50;59.60
4453;DHT22;2239;48.152;11.584;2023-07-20T09:29:10;25.70;59.00
4453;DHT22;2239;48.152;11.584;2023-07-20T09:31:36;26.20;58.40
4453;DHT22;2239;48.152;11.584;2023-07-20T09:34:03;26.50;58.00
4453;DHT22;2239;48.152;11.584;2023-07-20T09:36:29;26.70;58.00
4453;DHT22;2239;48.152;11.584;2023-07-20T09:38:59;26.80;56.90
4453;DHT22;2239;48.152;11.584;2023-07-20T09:41:24;26.80;56.30
4453;DHT22;2239;48.152;11.584;2023-07-20T09:43:51;26.80;56.40
4453;DHT22;2239;48.152;11.584;2023-07-20T09:46:16;26.70;56.90
4453;DHT22;2239;48.152;11.584;2023-07-20T09:48:54;26.70;56.50
4453;DHT22;2239;48.152;11.584;2023-07-20T09:51:23;26.90;56.20
4453;DHT22;2239;48.152;11.584;2023-07-20T09:53:52;27.10;55.10
4453;DHT22;2239;48.152;11.584;2023-07-20T09:56:21;27.30;54.40
4453;DHT22;2239;48.152;11.584;2023-07-20T09:58:48;27.00;54.20
4453;DHT22;2239;48.152;11.584;2023-07-20T10:01:18;26.80;54.30
4453;DHT22;2239;48.152;11.584;2023-07-20T10:03:46;26.80;54.80
4453;DHT22;2239;48.152;11.584;2023-07-20T10:06:15;26.80;54.90
4453;DHT22;2239;48.152;11.584;2023-07-20T10:08:45;26.70;55.40
4453;DHT22;2239;48.152;11.584;2023-07-20T10:11:15;27.00;55.30
4453;DHT22;2239;48.152;11.584;2023-07-20T10:13:43;27.10;55.50
4453;DHT22;2239;48.152;11.584;2023-07-20T10:16:35;27.20;55.20
4453;DHT22;2239;48.152;11.584;2023-07-20T10:19:07;26.90;55.00
4453;DHT22;2239;48.152;11.584;2023-07-20T10:21:35;26.40;56.00
4453;DHT22;2239;48.152;11.584;2023-07-20T10:24:05;26.20;56.80
4453;DHT22;2239;48.152;11.584;2023-07-20T10:26:30;25.80;57.00
4453;DHT22;2239;48.152;11.584;2023-07-20T10:28:57;25.80;57.70
4453;DHT22;2239;48.152;11.584;2023-07-20T10:31:25;25.80;57.90
4453;DHT22;2239;48.152;11.584;2023-07-20T10:33:56;25.80;58.70
4453;DHT22;2239;48.152;11.584;2023-07-20T10:36:25;25.80;58.70
4453;DHT22;2239;48.152;11.584;2023-07-20T10:38:53;25.60;58.80
4453;DHT22;2239;48.152;11.584;2023-07-20T10:41:31;25.70;58.80
4453;DHT22;2239;48.152;11.584;2023-07-20T10:44:04;25.60;58.50
4453;DHT22;2239;48.152;11.584;2023-07-20T10:49:05;25.70;58.80
4453;DHT22;2239;48.152;11.584;2023-07-20T10:51:42;25.90;58.60
4453;DHT22;2239;48.152;11.584;2023-07-20T10:57:21;26.40;57.90
4453;DHT22;2239;48.152;11.584;2023-07-20T10:59:41;26.50;56.70
4453;DHT22;2239;48.152;11.584;2023-07-20T11:02:07;26.40;57.80
4453;DHT22;2239;48.152;11.584;2023-07-20T11:04:40;26.20;57.60
4453;DHT22;2239;48.152;11.584;2023-07-20T11:07:06;26.00;58.50
4453;DHT22;2239;48.152;11.584;2023-07-20T11:09:36;26.00;58.60
4453;DHT22;2239;48.152;11.584;2023-07-20T11:12:29;26.20;58.50
4453;DHT22;2239;48.152;11.584;2023-07-20T11:14:56;25.90;58.50
4453;DHT22;2239;48.152;11.584;2023-07-20T11:17:31;26.00;58.70
4453;DHT22;2239;48.152;11.584;2023-07-20T11:19:59;26.10;57.90
4453;DHT22;2239;48.152;11.584;2023-07-20T11:22:26;26.20;58.10
4453;DHT22;2239;48.152;11.584;2023-07-20T11:24:55;26.20;58.00
4453;DHT22;2239;48.152;11.584;2023-07-20T11:27:21;26.40;57.80
4453;DHT22;2239;48.152;11.584;2023-07-20T11:29:50;26.60;57.30
4453;DHT22;2239;48.152;11.584;2023-07-20T11:32:24;26.80;56.90
4453;DHT22;2239;48.152;11.584;2023-07-20T11:34:50;27.30;55.90
4453;DHT22;2239;48.152;11.584;2023-07-20T11:37:19;27.40;56.00
4453;DHT22;2239;48.152;11.584;2023-07-20T11:39:45;27.40;55.60
4453;DHT22;2239;48.152;11.584;2023-07-20T11:42:11;27.40;55.70
4453;DHT22;2239;48.152;11.584;2023-07-20T11:44:38;27.30;55.60
4453;DHT22;2239;48.152;11.584;2023-07-20T11:47:07;27.30;55.30
4453;DHT22;2239;48.152;11.584;2023-07-20T11:49:39;27.20;55.30
4453;DHT22;2239;48.152;11.584;2023-07-20T11:52:13;27.10;55.40
4453;DHT22;2239;48.152;11.584;2023-07-20T11:54:41;27.00;55.20
4453;DHT22;2239;48.152;11.584;2023-07-20T11:57:07;26.80;56.00
4453;DHT22;2239;48.152;11.584;2023-07-20T11:59:32;27.00;56.10
4453;DHT22;2239;48.152;11.584;2023-07-20T12:02:01;27.30;55.30
4453;DHT22;2239;48.152;11.584;2023-07-20T12:04:28;27.40;55.30
4453;DHT22;2239;48.152;11.584;2023-07-20T12:06:54;27.70;54.80
4453;DHT22;2239;48.152;11.584;2023-07-20T12:09:20;28.00;54.20
4453;DHT22;2239;48.152;11.584;2023-07-20T12:11:49;27.80;54.10
4453;DHT22;2239;48.152;11.584;2023-07-20T12:14:15;27.60;54.20
4453;DHT22;2239;48.152;11.584;2023-07-20T12:16:40;27.40;54.30
4453;DHT22;2239;48.152;11.584;2023-07-20T12:19:12;27.30;54.80
4453;DHT22;2239;48.152;11.584;2023-07-20T12:21:39;27.10;55.30
4453;DHT22;2239;48.152;11.584;2023-07-20T12:24:07;27.20;55.00
4453;DHT22;2239;48.152;11.584;2023-07-20T12:26:34;26.90;55.10
4453;DHT22;2239;48.152;11.584;2023-07-20T12:29:00;26.60;55.30
4453;DHT22;2239;48.152;11.584;2023-07-20T12:31:27;26.40;56.30
4453;DHT22;2239;48.152;11.584;2023-07-20T12:33:54;26.50;56.20
4453;DHT22;2239;48.152;11.584;2023-07-20T12:36:20;26.70;55.80
4453;DHT22;2239;48.152;11.584;2023-07-20T12:38:46;27.00;55.50
4453;DHT22;2239;48.152;11.584;2023-07-20T12:41:12;27.10;55.00
4453;DHT22;2239;48.152;11.584;2023-07-20T12:43:42;27.50;56.10
4453;DHT22;2239;48.152;11.584;2023-07-20T12:46:08;27.70;54.60
4453;DHT22;2239;48.152;11.584;2023-07-20T12:48:35;27.90;54.50
4453;DHT22;2239;48.152;11.584;2023-07-20T12:51:02;27.80;54.60
4453;DHT22;2239;48.152;11.584;2023-07-20T12:53:29;27.60;53.80
4453;DHT22;2239;48.152;11.584;2023-07-20T12:55:54;27.50;53.80
4453;DHT22;2239;48.152;11.584;2023-07-20T12:58:20;27.30;54.10
4453;DHT22;2239;48.152;11.584;2023-07-20T13:00:45;27.20;55.20
4453;DHT22;2239;48.152;11.584;2023-07-20T13:03:11;27.50;55.30
4453;DHT22;2239;48.152;11.584;2023-07-20T13:05:36;27.60;53.90
4453;DHT22;2239;48.152;11.584;2023-07-20T13:08:02;27.80;54.00
4453;DHT22;2239;48.152;11.584;2023-07-20T13:10:28;27.90;53.40
4453;DHT22;2239;48.152;11.584;2023-07-20T13:12:54;28.10;53.60
4453;DHT22;2239;48.152;11.584;2023-07-20T13:15:20;28.40;53.10
4453;DHT22;2239;48.152;11.584;2023-07-20T13:17:46;28.70;52.30
4453;DHT22;2239;48.152;11.584;2023-07-20T13:20:12;28.90;52.20
4453;DHT22;2239;48.152;11.584;2023-07-20T13:22:39;28.90;52.20
4453;DHT22;2239;48.152;11.584;2023-07-20T13:25:06;29.00;51.50
4453;DHT22;2239;48.152;11.584;2023-07-20T13:27:32;28.70;51.40
4453;DHT22;2239;48.152;11.584;2023-07-20T13:29:59;28.70;51.30
4453;DHT22;2239;48.152;11.584;2023-07-20T13:32:25;28.80;51.80
4453;DHT22;2239;48.152;11.584;2023-07-20T13:34:51;29.00;51.10
4453;DHT22;2239;48.152;11.584;2023-07-20T13:37:16;28.90;50.90
4453;DHT22;2239;48.152;11.584;2023-07-20T13:39:42;28.80;50.90
4453;DHT22;2239;48.152;11.584;2023-07-20T13:42:08;29.00;51.00
4453;DHT22;2239;48.152;11.584;2023-07-20T13:44:34;28.80;50.70
4453;DHT22;2239;48.152;11.584;2023-07-20T13:47:03;28.70;50.70
4453;DHT22;2239;48.152;11.584;2023-07-20T13:49:31;28.60;51.60
4453;DHT22;2239;48.152;11.584;2023-07-20T13:51:56;28.60;51.30
4453;DHT22;2239;48.152;11.584;2023-07-20T13:54:25;28.70;51.30
4453;DHT22;2239;48.152;11.584;2023-07-20T13:56:51;28.60;51.50
4453;DHT22;2239;48.152;11.584;2023-07-20T13:59:18;28.80;51.70
4453;DHT22;2239;48.152;11.584;2023-07-20T14:01:43;28.70;50.60
4453;DHT22;2239;48.152;11.584;2023-07-20T14:04:09;28.80;50.30
4453;DHT22;2239;48.152;11.584;2023-07-20T14:06:35;28.90;50.00
4453;DHT22;2239;48.152;11.584;2023-07-20T14:09:01;28.90;49.30
4453;DHT22;2239;48.152;11.584;2023-07-20T14:11:27;29.10;49.50
4453;DHT22;2239;48.152;11.584;2023-07-20T14:13:53;29.30;48.90
4453;DHT22;2239;48.152;11.584;2023-07-20T14:16:22;29.50;48.10
4453;DHT22;2239;48.152;11.584;2023-07-20T14:18:48;29.50;48.00
4453;DHT22;2239;48.152;11.584;2023-07-20T14:21:19;29.60;48.00
4453;DHT22;2239;48.152;11.584;2023-07-20T14:23:46;29.60;48.70
4453;DHT22;2239;48.152;11.584;2023-07-20T14:26:12;29.60;47.60
4453;DHT22;2239;48.152;11.584;2023-07-20T14:28:38;29.50;49.50
4453;DHT22;2239;48.152;11.584;2023-07-20T14:31:04;29.50;48.50
4453;DHT22;2239;48.152;11.584;2023-07-20T14:33:30;29.30;48.60
4453;DHT22;2239;48.152;11.584;2023-07-20T14:35:56;29.00;48.80
4453;DHT22;2239;48.152;11.584;2023-07-20T14:38:22;29.00;48.90
4453;DHT22;2239;48.152;11.584;2023-07-20T14:40:47;29.10;48.90
4453;DHT22;2239;48.152;11.584;2023-07-20T14:43:13;28.90;49.50
4453;DHT22;2239;48.152;11.584;2023-07-20T14:45:42;28.90;47.60
4453;DHT22;2239;48.152;11.584;2023-07-20T14:48:07;29.10;47.30
4453;DHT22;2239;48.152;11.584;2023-07-20T14:50:34;29.30;47.40
4453;DHT22;2239;48.152;11.584;2023-07-20T14:52:59;29.00;47.60
4453;DHT22;2239;48.152;11.584;2023-07-20T14:55:25;28.80;48.40
4453;DHT22;2239;48.152;11.584;2023-07-20T14:57:51;28.60;48.80
4453;DHT22;2239;48.152;11.584;2023-07-20T15:00:17;28.50;49.20
4453;DHT22;2239;48.152;11.584;2023-07-20T15:02:43;28.50;49.60
4453;DHT22;2239;48.152;11.584;2023-07-20T15:05:12;28.50;49.20
4453;DHT22;2239;48.152;11.584;2023-07-20T15:07:45;28.30;49.40
4453;DHT22;2239;48.152;11.584;2023-07-20T15:10:10;28.20;49.40
4453;DHT22;2239;48.152;11.584;2023-07-20T15:12:36;28.10;49.60
4453;DHT22;2239;48.152;11.584;2023-07-20T15:15:08;27.90;50.00
4453;DHT22;2239;48.152;11.584;2023-07-20T15:17:35;27.80;50.40
4453;DHT22;2239;48.152;11.584;2023-07-20T15:20:02;28.00;50.30
4453;DHT22;2239;48.152;11.584;2023-07-20T15:22:32;28.10;50.00
4453;DHT22;2239;48.152;11.584;2023-07-20T15:24:58;28.20;49.60
4453;DHT22;2239;48.152;11.584;2023-07-20T15:27:24;28.30;49.90
4453;DHT22;2239;48.152;11.584;2023-07-20T15:29:50;28.50;49.10
4453;DHT22;2239;48.152;11.584;2023-07-20T15:32:19;28.50;48.90
4453;DHT22;2239;48.152;11.584;2023-07-20T15:34:45;28.60;49.60
4453;DHT22;2239;48.152;11.584;2023-07-20T15:37:11;28.40;49.20
4453;DHT22;2239;48.152;11.584;2023-07-20T15:39:38;28.20;49.50
4453;DHT22;2239;48.152;11.584;2023-07-20T15:42:04;28.20;50.10
4453;DHT22;2239;48.152;11.584;2023-07-20T15:44:30;28.20;50.00
4453;DHT22;2239;48.152;11.584;2023-07-20T15:46:56;28.10;49.60
4453;DHT22;2239;48.152;11.584;2023-07-20T15:49:22;28.10;50.10
4453;DHT22;2239;48.152;11.584;2023-07-20T15:51:47;28.10;50.00
4453;DHT22;2239;48.152;11.584;2023-07-20T15:54:14;28.10;49.90
4453;DHT22;2239;48.152;11.584;2023-07-20T15:56:41;27.90;50.00